Time;durP1;ratioP1;P1;durP2;ratioP2;P2;SDS_P1;SDS_P2;PMS_P1;PMS_P2;Temp;Humidity;BMP_temperature;BMP_pressure;BME280_temperature;BME280_humidity;BME280_pressure;Samples;Min_cycle;Max_cycle;Signal;HPM_P1;HPM_P2
2020/12/01 00:02:00;;;;;;;33.50;15.70;;;;;;;5.09;73.24;101705.53;1758896;80;22156;-76
2020/12/01 00:04:28;;;;;;;30.75;15.72;;;;;;;5.07;73.38;101699.92;1758820;80;20962;-73
2020/12/01 00:06:56;;;;;;;28.05;14.47;;;;;;;5.07;73.42;101703.41;1758832;80;21483;-74
2020/12/01 00:09:24;;;;;;;31.40;14.07;;;;;;;5.08;73.30;101702.50;1758682;80;20979;-76
2020/12/01 00:11:52;;;;;;;21.73;12.25;;;;;;;5.06;73.18;101708.17;1758779;80;20963;-76
2020/12/01 00:14:21;;;;;;;19.85;12.63;;;;;;;5.06;73.10;101715.13;1758673;80;21179;-76
2020/12/01 00:16:51;;;;;;;15.58;9.23;;;;;;;5.07;73.03;101719.00;1758622;80;20971;-76
2020/12/01 00:19:18;;;;;;;17.73;9.03;;;;;;;5.08;72.97;101718.11;1724801;80;20951;-74
2020/12/01 00:21:46;;;;;;;20.97;11.12;;;;;;;5.08;72.96;101712.91;1726976;80;21452;-75
2020/12/01 00:24:14;;;;;;;22.93;10.78;;;;;;;5.08;72.97;101713.36;1717784;82;21042;-75
2020/12/01 00:26:43;;;;;;;23.42;11.48;;;;;;;5.09;72.97;101709.86;1749051;80;20975;-76
2020/12/01 00:29:11;;;;;;;14.90;9.53;;;;;;;5.08;73.05;101707.70;1726881;80;21684;-75
2020/12/01 00:31:42;;;;;;;25.97;10.35;;;;;;;5.08;73.15;101702.50;1749124;80;20943;-76
2020/12/01 00:34:12;;;;;;;16.65;10.03;;;;;;;5.08;73.26;101702.50;1727435;81;20993;-77
2020/12/01 00:36:40;;;;;;;22.40;10.25;;;;;;;5.10;73.30;101703.78;1758655;80;20931;-74
2020/12/01 00:39:09;;;;;;;19.00;11.60;;;;;;;5.12;73.08;101702.02;1758791;80;21254;-76
2020/12/01 00:41:37;;;;;;;20.27;10.75;;;;;;;5.11;72.98;101698.56;1758549;80;21018;-74
2020/12/01 00:44:05;;;;;;;26.15;11.55;;;;;;;5.11;72.96;101698.98;1758655;80;20961;-74
2020/12/01 00:46:33;;;;;;;19.70;10.08;;;;;;;5.10;73.02;101699.88;1758675;80;21499;-74
2020/12/01 00:49:01;;;;;;;19.25;12.15;;;;;;;5.09;73.04;101709.44;1759611;80;21514;-75
2020/12/01 00:51:31;;;;;;;29.10;13.60;;;;;;;5.07;73.13;101709.02;1766112;80;21147;-76
2020/12/01 00:53:59;;;;;;;27.95;12.75;;;;;;;5.06;73.22;101709.92;1708263;79;21502;-74
2020/12/01 00:58:42;;;;;;;26.30;13.45;;;;;;;5.06;73.24;101712.53;1816154;79;24427;-75
2020/12/01 01:01:15;;;;;;;30.05;14.95;;;;;;;4.99;73.24;101711.34;1758345;80;21049;-76
2020/12/01 01:03:43;;;;;;;28.80;13.48;;;;;;;5.01;73.39;101714.37;1758448;80;21139;-75
2020/12/01 01:06:12;;;;;;;24.27;12.78;;;;;;;4.98;73.60;101710.94;1758263;80;20966;-75
2020/12/01 01:08:40;;;;;;;17.20;10.15;;;;;;;5.01;73.71;101720.87;1758278;80;21503;-76
2020/12/01 01:11:09;;;;;;;21.20;10.43;;;;;;;5.01;73.77;101717.81;1758286;80;20938;-75
2020/12/01 01:13:38;;;;;;;22.73;9.78;;;;;;;4.98;73.92;101711.39;1758401;80;20954;-76
2020/12/01 01:16:06;;;;;;;16.17;9.40;;;;;;;;;;1784326;79;22079;-75
2020/12/01 01:18:35;;;;;;;17.23;10.03;;;;;;;4.92;74.18;101708.45;1784122;80;21006;-76
2020/12/01 01:21:03;;;;;;;26.60;12.40;;;;;;;4.90;74.20;101712.81;1758410;80;21029;-75
2020/12/01 01:23:31;;;;;;;22.85;8.88;;;;;;;4.92;74.16;101711.05;1758305;80;20962;-75
2020/12/01 01:25:59;;;;;;;10.93;7.20;;;;;;;4.90;74.15;101715.86;1784240;80;20934;-74
2020/12/01 01:28:27;;;;;;;15.15;7.72;;;;;;;4.86;74.29;101714.20;1784392;79;22768;-75
2020/12/01 01:30:55;;;;;;;12.65;7.53;;;;;;;4.81;74.38;101717.34;1784120;80;20999;-74
2020/12/01 01:33:23;;;;;;;10.10;6.72;;;;;;;4.82;74.54;101715.14;1784231;80;21120;-75
2020/12/01 01:35:54;;;;;;;9.98;6.40;;;;;;;4.84;74.38;101721.17;1784322;80;21041;-75
2020/12/01 01:38:21;;;;;;;7.35;5.45;;;;;;;4.81;74.31;101708.25;1784169;80;20923;-75
2020/12/01 01:40:59;;;;;;;11.22;6.05;;;;;;;4.78;74.48;101713.91;1784219;80;22142;-75
2020/12/01 01:43:26;;;;;;;12.93;6.97;;;;;;;4.76;74.39;101716.13;1784259;80;20950;-76
2020/12/01 01:45:55;;;;;;;8.23;6.22;;;;;;;4.71;74.51;101714.03;1783885;80;21009;-75
2020/12/01 01:48:30;;;;;;;7.92;5.90;;;;;;;4.69;74.26;101719.28;1784213;80;20974;-75
2020/12/01 01:51:07;;;;;;;9.83;6.95;;;;;;;4.64;74.12;101721.53;1784278;80;20931;-76
2020/12/01 01:53:38;;;;;;;7.55;6.75;;;;;;;4.56;74.15;101725.13;1758225;80;21029;-75
2020/12/01 01:56:07;;;;;;;10.00;6.95;;;;;;;4.50;74.19;101725.67;1758305;78;21108;-75
2020/12/01 01:58:39;;;;;;;9.43;6.55;;;;;;;4.45;74.34;101728.80;1779599;80;21372;-75
2020/12/01 02:01:17;;;;;;;10.95;7.17;;;;;;;4.40;74.42;101732.73;1779603;80;20969;-75
2020/12/01 02:03:51;;;;;;;13.78;8.48;;;;;;;4.40;74.53;101730.59;1753774;81;21380;-75
2020/12/01 02:06:41;;;;;;;11.15;8.65;;;;;;;4.37;74.63;101736.70;1779594;80;21387;-75
2020/12/01 02:09:17;;;;;;;16.00;7.50;;;;;;;4.34;74.82;101745.39;1779009;80;21052;-75
2020/12/01 02:11:47;;;;;;;12.88;7.22;;;;;;;4.29;74.87;101735.53;1779239;80;20954;-74
2020/12/01 02:14:25;;;;;;;10.65;7.95;;;;;;;4.25;75.05;101735.16;1779315;79;21372;-75
2020/12/01 02:16:58;;;;;;;14.80;7.95;;;;;;;4.19;75.11;101733.95;1753259;81;21017;-75
2020/12/01 02:19:29;;;;;;;10.32;5.97;;;;;;;4.12;75.33;101739.67;1778992;80;21154;-76
2020/12/01 02:21:59;;;;;;;8.63;6.25;;;;;;;4.08;75.44;101746.23;1779125;80;21059;-75
2020/12/01 02:24:27;;;;;;;9.60;5.85;;;;;;;4.03;75.47;101737.22;1779032;80;20910;-75
2020/12/01 02:26:57;;;;;;;6.10;5.50;;;;;;;4.01;75.56;101749.81;1779031;80;21443;-74
2020/12/01 02:29:32;;;;;;;8.33;6.37;;;;;;;3.98;75.77;101745.94;1779067;79;20962;-76
2020/12/01 02:32:00;;;;;;;13.68;8.88;;;;;;;3.92;76.00;101747.75;1779211;80;21151;-76
2020/12/01 02:34:34;;;;;;;15.90;10.10;;;;;;;3.91;76.07;101749.06;1779024;80;21025;-74
2020/12/01 02:37:03;;;;;;;15.98;10.10;;;;;;;3.90;76.03;101752.55;1753258;81;21005;-75
2020/12/01 02:39:33;;;;;;;15.13;9.03;;;;;;;3.86;75.97;101748.28;1778949;79;21029;-75
2020/12/01 02:42:04;;;;;;;12.20;7.83;;;;;;;3.84;75.83;101757.82;1779116;79;21062;-76
2020/12/01 02:44:32;;;;;;;15.72;8.60;;;;;;;3.82;75.98;101763.02;1779024;80;21574;-76
2020/12/01 02:47:03;;;;;;;13.58;9.73;;;;;;;3.79;76.07;101757.89;1778907;80;20998;-76
2020/12/01 02:49:35;;;;;;;15.70;10.25;;;;;;;3.79;75.94;101762.22;1779165;80;21048;-76
2020/12/01 02:52:04;;;;;;;14.15;8.90;;;;;;;3.80;76.02;101758.32;1779315;80;21006;-76
2020/12/01 02:54:32;;;;;;;14.28;9.40;;;;;;;3.82;75.89;101759.58;1779536;80;20958;-74
2020/12/01 02:57:00;;;;;;;12.95;8.25;;;;;;;3.83;75.82;101757.42;1779273;79;22083;-75
2020/12/01 02:59:28;;;;;;;11.88;8.63;;;;;;;3.83;75.76;101763.45;1732148;80;20991;-77
2020/12/01 03:01:57;;;;;;;9.68;8.03;;;;;;;3.80;75.76;101758.32;1668334;84;20998;-78
2020/12/01 03:04:25;;;;;;;18.65;10.23;;;;;;;3.79;75.94;101762.22;1668222;84;21041;-78
2020/12/01 03:06:53;;;;;;;13.80;9.73;;;;;;;3.77;76.01;101768.72;1671081;84;20994;-78
2020/12/01 03:09:21;;;;;;;17.73;12.13;;;;;;;3.72;76.04;101775.27;1668382;85;22134;-77
2020/12/01 03:11:50;;;;;;;14.60;10.72;;;;;;;3.67;76.22;101777.07;1645481;85;21014;-78
2020/12/01 03:14:19;;;;;;;17.05;11.63;;;;;;;3.65;76.31;101780.13;1645413;85;20986;-77
2020/12/01 03:16:49;;;;;;;14.70;10.50;;;;;;;3.64;76.36;101777.09;1645442;85;20983;-78
2020/12/01 03:19:20;;;;;;;16.42;9.30;;;;;;;3.63;76.35;101792.70;1645603;85;21031;-77
2020/12/01 03:21:48;;;;;;;18.32;10.55;;;;;;;3.61;76.46;101792.70;1668354;84;21981;-78
2020/12/01 03:24:15;;;;;;;17.20;11.73;;;;;;;3.58;76.44;101794.05;1645551;85;21049;-77
2020/12/01 03:26:44;;;;;;;17.20;11.80;;;;;;;3.53;76.47;101785.45;1645546;85;21002;-78
2020/12/01 03:29:12;;;;;;;12.90;9.95;;;;;;;3.50;76.50;101788.94;1645527;85;21026;-79
2020/12/01 03:31:40;;;;;;;19.10;11.00;;;;;;;3.48;76.57;101791.98;1668121;84;20979;-78
2020/12/01 03:34:09;;;;;;;17.80;10.55;;;;;;;3.46;76.37;101785.95;1645731;85;21741;-78
2020/12/01 03:36:36;;;;;;;13.95;9.35;;;;;;;3.46;76.34;101792.44;1645633;85;21014;-79
2020/12/01 03:39:05;;;;;;;10.32;7.55;;;;;;;3.48;76.28;101795.87;1668272;84;21054;-79
2020/12/01 03:41:33;;;;;;;16.27;9.43;;;;;;;3.48;76.13;101791.98;1645618;85;21689;-79
2020/12/01 03:44:01;;;;;;;19.92;11.40;;;;;;;3.47;76.11;101795.91;1668211;85;20978;-78
2020/12/01 03:46:28;;;;;;;18.55;10.68;;;;;;;3.45;76.09;101798.52;1645754;85;22146;-78
2020/12/01 03:49:00;;;;;;;19.23;12.15;;;;;;;3.46;76.01;101798.07;1645414;85;21456;-79
2020/12/01 03:51:28;;;;;;;18.10;10.75;;;;;;;3.45;75.92;101795.07;1645680;85;21429;-78
2020/12/01 03:53:56;;;;;;;19.65;12.55;;;;;;;3.44;75.81;101790.74;1645369;85;21057;-79
2020/12/01 03:56:24;;;;;;;16.70;10.32;;;;;;;3.45;75.72;101787.29;1645705;85;21496;-79
2020/12/01 03:58:51;;;;;;;15.78;9.63;;;;;;;3.46;75.71;101788.55;1671101;84;22147;-79
2020/12/01 04:01:19;;;;;;;16.97;10.82;;;;;;;3.51;75.69;101801.45;1661371;85;21035;-79
2020/12/01 04:03:50;;;;;;;16.30;10.20;;;;;;;3.52;75.49;101808.38;1647405;79;21569;-77
2020/12/01 04:06:19;;;;;;;15.53;10.40;;;;;;;3.49;75.61;101807.09;1649063;85;20999;-77
2020/12/01 04:08:49;;;;;;;15.48;9.85;;;;;;;3.49;75.65;101805.80;1649075;85;21059;-78
2020/12/01 04:11:17;;;;;;;16.93;9.48;;;;;;;3.47;75.58;101804.55;1649028;84;21051;-77
2020/12/01 04:13:46;;;;;;;18.27;10.32;;;;;;;3.47;75.36;101803.70;1649314;84;21135;-77
2020/12/01 04:16:14;;;;;;;19.87;11.88;;;;;;;3.43;75.17;101796.82;1649245;85;20989;-77
2020/12/01 04:18:42;;;;;;;17.10;8.83;;;;;;;3.42;75.02;101788.61;1649077;85;20988;-77
2020/12/01 04:21:13;;;;;;;22.27;11.88;;;;;;;3.41;74.83;101792.94;1649043;85;21085;-78
2020/12/01 04:23:41;;;;;;;18.80;11.48;;;;;;;3.38;74.81;101792.10;1649182;85;21189;-76
2020/12/01 04:26:09;;;;;;;16.90;10.35;;;;;;;3.35;75.08;101796.89;1649229;85;21531;-79
2020/12/01 04:28:37;;;;;;;14.68;9.60;;;;;;;3.36;75.23;101799.03;1649258;85;21075;-77
2020/12/01 04:31:08;;;;;;;13.35;9.25;;;;;;;3.35;75.14;101804.67;1649074;85;20998;-78
2020/12/01 04:33:36;;;;;;;14.90;10.13;;;;;;;3.34;74.73;101812.04;1649394;85;21016;-75
2020/12/01 04:36:07;;;;;;;13.43;8.58;;;;;;;3.29;74.26;101810.80;1649212;85;22117;-78
2020/12/01 04:38:34;;;;;;;12.88;8.60;;;;;;;3.24;74.19;101810.41;1649077;85;21138;-80
2020/12/01 04:41:03;;;;;;;10.55;7.35;;;;;;;3.20;74.30;101816.08;1651432;85;20972;-77
2020/12/01 04:43:48;;;;;;;9.23;6.83;;;;;;;3.17;74.30;101803.13;1651847;85;21041;-78
2020/12/01 04:46:20;;;;;;;16.32;9.28;;;;;;;3.11;74.28;101804.06;1651640;84;21074;-77
2020/12/01 04:48:52;;;;;;;11.68;9.45;;;;;;;3.06;74.35;101810.16;1651182;85;21725;-77
2020/12/01 04:51:56;;;;;;;11.60;8.90;;;;;;;3.01;74.72;101812.79;1649574;85;21051;-76
2020/12/01 04:55:04;;;;;;;18.37;11.43;;;;;;;3.00;74.86;101816.68;1648628;85;21544;-78
2020/12/01 04:58:11;;;;;;;13.90;10.03;;;;;;;2.98;75.13;101813.24;1649338;85;21007;-77
2020/12/01 05:01:08;;;;;;;16.70;8.80;;;;;;;3.03;75.24;101818.82;1649445;85;21059;-76
2020/12/01 05:04:15;;;;;;;14.33;9.38;;;;;;;3.02;74.38;101808.02;1621847;87;21206;-76
2020/12/01 05:09:46;;;;;;;18.57;12.07;;;;;;;3.02;73.89;101804.58;1848086;76;22759;-76
2020/12/01 05:12:22;;;;;;;19.20;12.30;;;;;;;2.95;74.11;101809.40;1786587;79;21352;-76
2020/12/01 05:15:03;;;;;;;20.23;13.03;;;;;;;2.94;74.40;101811.58;1786591;79;22157;-75
2020/12/01 05:18:07;;;;;;;18.62;12.82;;;;;;;2.96;74.30;101809.39;1786675;79;21432;-75
2020/12/01 05:20:57;;;;;;;17.07;11.75;;;;;;;2.95;74.40;101819.31;1786906;79;20923;-75
2020/12/01 05:23:46;;;;;;;26.70;15.80;;;;;;;2.94;74.07;101808.98;1790124;77;20935;-77
2020/12/01 05:26:17;;;;;;;39.58;19.27;;;;;;;2.94;74.05;101818.91;1789966;77;20966;-78
2020/12/01 05:28:52;;;;;;;37.63;19.73;;;;;;;2.97;74.07;101818.02;1788959;77;21158;-80
2020/12/01 05:31:27;;;;;;;25.43;16.80;;;;;;;2.97;74.23;101825.34;1790098;79;21032;-77
2020/12/01 05:34:03;;;;;;;28.92;17.75;;;;;;;2.94;74.49;101819.35;1789237;79;20895;-77
2020/12/01 05:36:37;;;;;;;26.97;16.82;;;;;;;2.94;74.49;101819.35;1790376;77;20950;-76
2020/12/01 05:39:16;;;;;;;22.73;15.43;;;;;;;2.93;74.72;101825.39;1788614;77;20914;-76
2020/12/01 05:41:47;;;;;;;20.17;13.55;;;;;;;2.90;74.82;101824.98;1789863;78;20934;-79
2020/12/01 05:44:28;;;;;;;21.82;13.25;;;;;;;2.87;74.91;101828.47;1788462;79;20966;-77
2020/12/01 05:47:08;;;;;;;19.77;13.05;;;;;;;2.85;75.11;101825.03;1787583;79;20939;-79
2020/12/01 05:49:52;;;;;;;19.23;13.78;;;;;;;2.87;75.40;101823.73;1784186;79;20966;-79
2020/12/01 05:52:44;;;;;;;28.50;17.43;;;;;;;2.83;75.58;101815.11;1786524;79;21033;-78
2020/12/01 05:55:25;;;;;;;26.07;17.77;;;;;;;2.88;75.49;101810.74;1919463;73;22603;-77
2020/12/01 05:57:59;;;;;;;28.75;17.32;;;;;;;2.85;75.48;101827.62;1853249;76;21001;-77
2020/12/01 06:00:33;;;;;;;;;;;;;;;2.83;75.47;101828.51;1890157;75;21359;-77
2020/12/01 06:03:20;;;;;;;22.30;16.15;;;;;;;2.81;75.68;101826.36;1882119;76;20956;-76
2020/12/01 06:05:51;;;;;;;23.77;15.58;;;;;;;2.77;75.48;101826.81;1853124;76;21363;-77
2020/12/01 06:08:39;;;;;;;25.57;16.50;;;;;;;2.76;75.61;101828.11;1853407;74;21502;-76
2020/12/01 06:11:52;;;;;;;34.73;21.25;;;;;;;2.73;75.81;101839.80;1733075;81;20955;-84
2020/12/01 06:14:42;;;;;;;38.60;24.45;;;;;;;2.71;75.79;101830.73;1661864;84;21032;-83
2020/12/01 06:20:56;;;;;;;43.87;22.98;;;;;;;2.70;75.90;101841.55;1665462;83;21140;-81
2020/12/01 06:24:00;;;;;;;37.83;21.73;;;;;;;2.69;75.97;101832.07;1686692;84;21044;-85
2020/12/01 06:27:05;;;;;;;30.60;18.57;;;;;;;2.69;75.92;101834.66;1686131;84;20981;-82
2020/12/01 06:29:49;;;;;;;;;;;;;;;2.70;75.72;101836.80;1687051;84;21644;-84
2020/12/01 06:32:40;;;;;;;31.12;17.50;;;;;;;2.70;75.39;101841.55;1684527;84;20129;-85
2020/12/01 06:35:23;;;;;;;34.20;19.52;;;;;;;2.71;75.45;101841.09;1684623;84;21541;-86
2020/12/01 06:38:14;;;;;;;35.68;20.65;;;;;;;2.75;75.48;101841.51;1684708;84;21067;-82
2020/12/01 06:40:58;;;;;;;38.23;21.37;;;;;;;2.80;75.49;101841.05;1685756;84;21074;-83
2020/12/01 06:43:37;;;;;;;39.88;21.17;;;;;;;2.81;75.44;101841.46;1685281;84;21518;-86
2020/12/01 06:46:46;;;;;;;37.40;18.65;;;;;;;2.77;75.45;101839.77;1684538;83;21397;-82
2020/12/01 06:52:18;;;;;;;31.95;17.12;;;;;;;2.82;75.98;101826.33;1820296;77;22682;-80
2020/12/01 06:54:55;;;;;;;29.75;16.67;;;;;;;2.78;76.16;101832.44;1729050;81;20983;-82
2020/12/01 06:57:36;;;;;;;26.33;18.50;;;;;;;2.79;76.36;101831.99;1738198;81;21488;-82
2020/12/01 07:00:06;;;;;;;35.50;20.08;;;;;;;2.80;76.25;101829.81;1728837;81;21002;-81
2020/12/01 07:02:37;;;;;;;35.78;19.30;;;;;;;2.78;76.27;101820.78;1738193;81;21065;-83
2020/12/01 07:05:32;;;;;;;31.65;16.90;;;;;;;2.79;76.37;101828.95;1726398;81;21018;-82
2020/12/01 07:08:02;;;;;;;30.72;17.48;;;;;;;2.81;76.54;101831.55;1738054;81;21049;-81
2020/12/01 07:10:32;;;;;;;30.77;17.87;;;;;;;2.82;76.62;101830.22;1715508;81;22178;-77
2020/12/01 07:13:08;;;;;;;28.32;18.15;;;;;;;2.86;76.54;101828.47;1729276;81;20987;-80
2020/12/01 07:15:49;;;;;;;28.23;20.25;;;;;;;2.84;76.68;101828.92;1738118;81;21053;-77
2020/12/01 07:18:26;;;;;;;32.40;19.77;;;;;;;2.81;76.89;101833.69;1729115;81;21038;-77
2020/12/01 07:21:14;;;;;;;37.63;20.43;;;;;;;2.80;77.03;101838.47;1738184;81;21069;-79
2020/12/01 07:24:07;;;;;;;33.85;20.20;;;;;;;2.85;76.86;101835.84;1846131;76;22773;-81
2020/12/01 07:26:58;;;;;;;30.40;18.07;;;;;;;2.79;76.98;101841.91;1786336;79;20967;-76
2020/12/01 07:30:06;;;;;;;30.10;17.92;;;;;;;2.77;77.15;101842.36;1786286;79;21035;-78
2020/12/01 07:32:52;;;;;;;35.03;19.92;;;;;;;2.73;77.42;101844.54;1786374;79;20970;-77
2020/12/01 07:35:53;;;;;;;34.18;21.48;;;;;;;2.70;77.68;101853.64;1785430;79;20939;-78
2020/12/01 07:38:40;;;;;;;44.35;26.73;;;;;;;2.67;77.52;101851.94;1786337;79;20927;-77
2020/12/01 07:41:27;;;;;;;51.25;27.75;;;;;;;2.72;77.55;101848.46;1786447;79;20946;-76
2020/12/01 07:44:11;;;;;;;54.48;26.42;;;;;;;2.77;77.43;101851.86;1786723;79;21166;-79
2020/12/01 07:49:24;;;;;;;38.15;21.25;;;;;;;2.83;76.72;101846.20;1786531;79;21025;-83
2020/12/01 07:52:17;;;;;;;39.18;21.40;;;;;;;2.84;76.05;101841.88;1786571;79;21069;-83
2020/12/01 07:54:48;;;;;;;57.13;29.00;;;;;;;2.82;75.71;101841.88;1786386;79;21116;-83
2020/12/01 07:57:19;;;;;;;64.77;33.30;;;;;;;2.78;75.54;101846.69;1786437;79;20975;-81
2020/12/01 07:59:50;;;;;;;49.70;28.57;;;;;;;2.80;75.47;101842.77;1786095;79;21010;-84
2020/12/01 08:02:22;;;;;;;40.83;23.77;;;;;;;2.82;74.90;101835.84;1786462;79;20864;-83
2020/12/01 08:05:03;;;;;;;32.85;21.77;;;;;;;2.84;74.40;101845.75;1786656;79;20938;-84
2020/12/01 08:07:32;;;;;;;31.40;19.20;;;;;;;2.81;74.28;101836.28;1786616;79;21010;-81
2020/12/01 08:10:07;;;;;;;28.02;16.10;;;;;;;2.84;73.84;101845.75;1786496;79;20955;-81
2020/12/01 08:12:39;;;;;;;;;;;;;;;2.85;73.67;101838.42;1788494;79;21411;-83
2020/12/01 08:15:13;;;;;;;32.98;19.05;;;;;;;2.85;73.72;101845.75;1773563;77;20149;-82
2020/12/01 08:17:42;;;;;;;;;;;;;;;2.85;73.92;101841.02;1675493;83;20939;-84
2020/12/01 08:20:13;;;;;;;33.02;18.90;;;;;;;2.88;73.76;101844.86;1694051;83;20155;-86
2020/12/01 08:22:43;;;;;;;42.53;19.35;;;;;;;2.89;73.98;101841.39;1732405;80;20962;-84
2020/12/01 08:25:14;;;;;;;30.60;18.27;;;;;;;2.92;73.74;101833.61;1756306;80;21392;-83
2020/12/01 08:27:50;;;;;;;30.40;18.32;;;;;;;2.95;73.51;101834.86;1760830;80;21531;-83
2020/12/01 08:30:43;;;;;;;35.25;19.02;;;;;;;2.97;73.45;101831.83;1756304;80;20957;-84
2020/12/01 08:33:17;;;;;;;32.83;16.57;;;;;;;3.02;73.19;101826.59;1756041;80;20957;-82
2020/12/01 08:36:01;;;;;;;32.95;17.52;;;;;;;3.06;72.71;101828.30;1753590;80;21497;-84
2020/12/01 08:39:15;;;;;;;25.68;17.60;;;;;;;3.07;72.69;101832.17;1753433;80;20979;-83
2020/12/01 08:41:55;;;;;;;27.95;17.87;;;;;;;3.08;72.00;101826.55;1755736;80;21045;-83
2020/12/01 08:44:46;;;;;;;33.88;20.57;;;;;;;3.08;72.09;101822.22;1747422;80;20981;-80
2020/12/01 08:47:14;;;;;;;30.97;18.55;;;;;;;3.08;72.38;101822.66;1756095;80;20946;-81
2020/12/01 08:49:47;;;;;;;27.15;17.80;;;;;;;3.11;72.06;101815.73;1755639;80;21051;-82
2020/12/01 08:52:39;;;;;;;30.30;18.35;;;;;;;3.10;71.97;101814.44;1755982;80;21029;-81
2020/12/01 08:55:19;;;;;;;30.20;16.70;;;;;;;3.11;72.22;101808.37;1755661;80;20934;-83
2020/12/01 08:57:51;;;;;;;20.90;14.07;;;;;;;3.18;71.97;101815.64;1735988;80;20978;-82
2020/12/01 09:00:23;;;;;;;21.42;13.30;;;;;;;3.20;71.27;101811.30;1755914;80;21523;-81
2020/12/01 09:02:53;;;;;;;26.42;17.90;;;;;;;3.18;70.75;101805.27;1733262;79;21349;-81
2020/12/01 09:05:30;;;;;;;23.38;16.37;;;;;;;3.15;70.93;101799.69;1755492;80;20942;-82
2020/12/01 09:08:35;;;;;;;27.73;17.77;;;;;;;3.17;70.89;101813.50;1755665;80;21542;-85
2020/12/01 09:10:44;;;;;;;34.95;20.45;;;;;;;3.15;71.10;101807.91;1752119;80;21041;-82
2020/12/01 09:13:23;;;;;;;33.63;21.48;;;;;;;3.10;71.54;101809.25;1755818;79;20954;-80
2020/12/01 09:24:00;;;;;;;37.48;20.92;;;;;;;3.11;72.27;101805.77;1698271;83;21054;-77
2020/12/01 09:26:29;;;;;;;36.75;19.37;;;;;;;3.13;71.95;101792.37;1698801;83;20968;-79
2020/12/01 09:28:57;;;;;;;32.60;19.65;;;;;;;3.15;71.94;101791.06;1701290;83;21171;-80
2020/12/01 09:31:26;;;;;;;39.83;22.45;;;;;;;3.14;71.93;101792.80;1699577;83;20999;-82
2020/12/01 09:33:58;;;;;;;36.38;21.73;;;;;;;3.08;72.29;101784.64;1698811;83;21051;-80
2020/12/01 09:36:26;;;;;;;26.65;16.20;;;;;;;3.03;72.80;101792.05;1698791;82;20991;-80
2020/12/01 09:38:54;;;;;;;30.60;16.97;;;;;;;3.00;72.96;101789.48;1700204;83;21039;-78
2020/12/01 09:41:25;;;;;;;36.08;19.95;;;;;;;2.97;73.16;101781.74;1701896;82;21098;-79
2020/12/01 09:44:01;;;;;;;39.78;22.37;;;;;;;2.93;73.45;101785.23;1700452;82;21039;-80
2020/12/01 09:46:33;;;;;;;39.15;22.50;;;;;;;2.89;73.63;101781.39;1698825;83;21059;-79
2020/12/01 09:48:55;;;;;;;31.57;20.72;;;;;;;2.91;73.77;101783.94;1697778;82;21055;-79
2020/12/01 09:51:25;;;;;;;41.05;22.48;;;;;;;2.92;73.79;101779.64;1698540;83;21385;-80
2020/12/01 10:12:28;;;;;;;35.13;21.40;;;;;;;2.81;74.04;101765.05;1698069;82;21114;-80
2020/12/01 10:17:48;;;;;;;42.65;24.87;;;;;;;2.78;74.43;101767.67;1698332;83;21624;-79
2020/12/01 10:20:55;;;;;;;40.30;24.55;;;;;;;2.77;74.60;101769.83;1733374;81;20970;-79
2020/12/01 10:36:26;;;;;;;32.03;19.77;;;;;;;2.79;74.52;101765.50;1640479;85;21018;-79
2020/12/01 10:38:54;;;;;;;35.70;22.80;;;;;;;2.76;74.08;101763.36;1640380;86;21061;-78
2020/12/01 10:41:32;;;;;;;24.30;17.80;;;;;;;2.73;74.27;101759.52;1640436;86;21530;-78
2020/12/01 10:44:01;;;;;;;35.17;20.00;;;;;;;2.72;74.35;101765.14;1640437;86;21546;-78
2020/12/01 10:46:29;;;;;;;30.17;17.42;;;;;;;2.73;74.35;101761.66;1640407;86;21600;-79
2020/12/01 10:48:57;;;;;;;34.03;19.65;;;;;;;2.74;74.41;101754.33;1640246;85;21010;-79
2020/12/01 10:51:26;;;;;;;30.72;19.52;;;;;;;2.75;74.58;101759.92;1640368;86;21010;-79
2020/12/01 10:53:54;;;;;;;34.53;21.40;;;;;;;2.76;74.43;101750.41;1640365;86;21082;-80
2020/12/01 10:56:21;;;;;;;36.45;23.18;;;;;;;2.74;74.42;101745.70;1640425;86;20998;-80
2020/12/01 10:58:49;;;;;;;34.80;23.07;;;;;;;2.73;74.68;101749.16;1640423;86;21088;-77
2020/12/01 11:01:18;;;;;;;40.88;23.20;;;;;;;2.72;74.68;101737.94;1640335;86;21022;-78
2020/12/01 11:03:46;;;;;;;39.95;19.80;;;;;;;2.73;74.91;101737.05;1640437;86;21058;-80
2020/12/01 11:06:18;;;;;;;37.70;20.75;;;;;;;2.77;75.12;101732.72;1640507;86;21061;-79
2020/12/01 11:08:49;;;;;;;40.03;20.80;;;;;;;2.81;75.07;101733.11;1641240;86;21057;-81
2020/12/01 11:11:18;;;;;;;43.85;25.35;;;;;;;2.81;74.47;101733.96;1687696;82;21147;-79
2020/12/01 11:13:46;;;;;;;59.65;35.90;;;;;;;2.78;74.29;101728.83;1707049;82;21006;-78
2020/12/01 11:16:14;;;;;;;47.40;30.60;;;;;;;2.75;74.21;101727.98;1710202;81;21043;-80
2020/12/01 11:18:42;;;;;;;49.93;26.37;;;;;;;2.72;74.36;101730.17;1710184;82;21398;-80
2020/12/01 11:21:10;;;;;;;34.30;21.15;;;;;;;2.73;74.16;101726.70;1710010;82;20944;-78
2020/12/01 11:23:40;;;;;;;33.28;19.70;;;;;;;2.75;74.16;101739.20;1710132;81;20999;-83
2020/12/01 11:26:15;;;;;;;34.05;19.00;;;;;;;2.78;74.04;101730.53;1736197;79;21011;-79
2020/12/01 11:28:45;;;;;;;33.75;22.60;;;;;;;2.82;74.04;101733.52;1742158;81;20913;-78
2020/12/01 11:31:13;;;;;;;31.73;19.50;;;;;;;2.84;74.20;101731.77;1739763;81;20901;-76
2020/12/01 11:33:43;;;;;;;34.05;20.15;;;;;;;2.86;73.65;101734.77;1740069;81;21383;-80
2020/12/01 11:36:16;;;;;;;34.92;19.37;;;;;;;2.86;73.58;101736.51;1739930;81;21905;-84
2020/12/01 11:38:45;;;;;;;31.87;19.87;;;;;;;2.84;73.37;101748.17;1742135;81;21514;-77
2020/12/01 11:41:15;;;;;;;38.35;19.48;;;;;;;2.79;73.48;101733.56;1739738;81;21036;-78
2020/12/01 11:43:43;;;;;;;30.72;17.52;;;;;;;2.76;73.55;101740.05;1739667;79;21673;-78
2020/12/01 11:46:11;;;;;;;31.12;20.40;;;;;;;2.72;73.55;101739.23;1740058;81;20965;-77
2020/12/01 11:48:41;;;;;;;36.98;24.45;;;;;;;2.69;73.68;101745.31;1739819;81;22133;-77
2020/12/01 11:51:14;;;;;;;42.95;28.38;;;;;;;2.66;73.74;101739.29;1739571;79;20965;-75
2020/12/01 11:53:43;;;;;;;45.37;28.77;;;;;;;2.67;73.83;101744.91;1740010;81;21561;-77
2020/12/01 11:56:13;;;;;;;40.43;23.55;;;;;;;2.72;73.65;101747.45;1739923;81;21498;-77
2020/12/01 11:58:41;;;;;;;39.53;24.65;;;;;;;2.73;73.56;101740.09;1716024;81;21080;-78
2020/12/01 12:01:10;;;;;;;42.65;25.05;;;;;;;2.74;73.66;101740.08;1741491;81;20998;-77
2020/12/01 12:03:37;;;;;;;38.02;21.70;;;;;;;2.77;73.74;101741.78;1692622;81;21000;-79
2020/12/01 12:06:06;;;;;;;35.58;21.05;;;;;;;2.79;73.29;101733.56;1739621;81;21001;-79
2020/12/01 12:08:34;;;;;;;38.67;20.80;;;;;;;2.77;73.22;101734.86;1739777;81;21008;-78
2020/12/01 12:11:03;;;;;;;34.48;20.72;;;;;;;2.77;73.40;101741.78;1739769;81;20957;-79
2020/12/01 12:13:32;;;;;;;43.75;23.67;;;;;;;2.77;73.56;101752.14;1739898;81;21004;-78
2020/12/01 12:16:00;;;;;;;33.25;20.48;;;;;;;2.77;73.69;101743.93;1739735;81;21537;-77
2020/12/01 12:18:27;;;;;;;32.67;19.85;;;;;;;2.81;73.76;101732.67;1739793;81;21009;-77
2020/12/01 12:20:56;;;;;;;47.60;26.40;;;;;;;2.84;73.00;101742.14;1739982;81;21395;-76
2020/12/01 12:23:24;;;;;;;41.23;26.73;;;;;;;2.82;73.03;101736.11;1739937;81;21040;-79
2020/12/01 12:25:52;;;;;;;41.33;24.57;;;;;;;2.81;73.04;101737.84;1733887;81;21177;-77
2020/12/01 12:28:21;;;;;;;29.55;18.65;;;;;;;2.81;72.82;101741.73;1757595;81;20969;-80
2020/12/01 12:30:50;;;;;;;26.05;16.95;;;;;;;2.82;72.83;101736.11;1730076;81;20965;-77
2020/12/01 12:33:20;;;;;;;37.17;19.25;;;;;;;2.80;72.79;101737.44;1729568;81;20938;-78
2020/12/01 12:35:51;;;;;;;31.02;21.07;;;;;;;2.80;72.76;101739.15;1729368;81;21032;-77
2020/12/01 12:38:19;;;;;;;38.40;22.17;;;;;;;2.78;72.87;101740.48;1729760;81;22840;-76
2020/12/01 12:40:47;;;;;;;41.60;25.37;;;;;;;2.79;73.04;101738.74;1729598;81;21534;-81
2020/12/01 12:43:16;;;;;;;39.95;27.40;;;;;;;2.83;72.87;101741.73;1729129;81;20977;-77
2020/12/01 12:45:43;;;;;;;49.75;26.15;;;;;;;2.86;72.79;101740.39;1729157;81;21013;-78
2020/12/01 12:48:11;;;;;;;44.25;24.05;;;;;;;2.88;72.46;101742.53;1729134;81;21021;-81
2020/12/01 12:50:39;;;;;;;35.20;18.82;;;;;;;2.89;72.35;101754.19;1729219;81;22000;-81